createdAt,value
2022-09-17T00:01:33.175Z,87.19
2022-09-17T00:04:02.201Z,86.85
2022-09-17T00:06:29.157Z,87.27
2022-09-17T00:08:55.913Z,87.29
2022-09-17T00:11:26.036Z,87.12
2022-09-17T00:13:54.009Z,87.16
2022-09-17T00:16:39.766Z,87.11
2022-09-17T00:19:09.232Z,87.61
2022-09-17T00:21:36.177Z,87.61
2022-09-17T00:24:04.939Z,87.73
2022-09-17T00:26:33.080Z,87.70
2022-09-17T00:29:00.404Z,87.71
2022-09-17T00:31:28.924Z,87.80
2022-09-17T00:33:55.761Z,88.05
2022-09-17T00:36:23.157Z,87.84
2022-09-17T00:38:58.434Z,87.69
2022-09-17T00:41:28.914Z,88.18
2022-09-17T00:43:58.756Z,87.94
2022-09-17T00:46:32.194Z,88.13
2022-09-17T00:49:06.343Z,88.01
2022-09-17T00:51:36.408Z,88.16
2022-09-17T00:54:04.567Z,88.03
2022-09-17T00:56:34.351Z,88.32
2022-09-17T00:59:02.256Z,88.00
2022-09-17T01:01:29.608Z,88.41
2022-09-17T01:03:56.386Z,88.07
2022-09-17T01:06:43.411Z,88.42
2022-09-17T01:09:30.335Z,88.35
2022-09-17T01:12:27.663Z,88.76
2022-09-17T01:15:07.267Z,88.66
2022-09-17T01:18:18.423Z,88.72
2022-09-17T01:21:22.704Z,88.72
2022-09-17T01:23:53.762Z,88.90
2022-09-17T01:26:44.842Z,89.10
2022-09-17T01:35:43.365Z,88.72
2022-09-17T01:38:32.584Z,88.65
2022-09-17T01:41:21.127Z,88.83
2022-09-17T01:44:08.134Z,88.93
2022-09-17T01:46:44.032Z,88.97
2022-09-17T01:49:11.635Z,89.22
2022-09-17T01:51:46.050Z,89.04
2022-09-17T01:54:18.260Z,89.40
2022-09-17T01:56:54.825Z,89.12
2022-09-17T01:59:25.556Z,89.42
2022-09-17T02:01:53.502Z,89.36
2022-09-17T02:04:24.547Z,89.35
2022-09-17T02:06:55.277Z,89.23
2022-09-17T02:09:25.016Z,89.30
2022-09-17T02:11:55.771Z,89.49
2022-09-17T02:14:30.108Z,89.58
2022-09-17T02:17:25.345Z,89.52
2022-09-17T02:19:53.794Z,89.59
2022-09-17T02:22:41.442Z,89.86
2022-09-17T02:25:19.729Z,89.80
2022-09-17T02:27:52.453Z,89.39
2022-09-17T02:30:19.450Z,89.57
2022-09-17T02:32:46.542Z,89.79
2022-09-17T02:35:14.996Z,89.58
2022-09-17T02:37:42.918Z,89.81
2022-09-17T02:40:11.913Z,89.89
2022-09-17T02:43:03.150Z,89.71
2022-09-17T02:46:07.653Z,89.79
2022-09-17T02:48:53.248Z,90.19
2022-09-17T02:51:45.467Z,90.20
2022-09-17T02:54:23.747Z,90.13
2022-09-17T02:57:18.469Z,90.16
2022-09-17T03:00:12.784Z,90.11
2022-09-17T03:02:47.473Z,90.55
2022-09-17T03:05:17.411Z,90.42
2022-09-17T03:07:46.067Z,90.43
2022-09-17T03:10:13.651Z,90.73
2022-09-17T03:12:41.183Z,90.65
2022-09-17T03:15:08.641Z,90.73
2022-09-17T03:17:35.416Z,91.21
2022-09-17T03:20:02.306Z,91.02
2022-09-17T03:22:29.158Z,91.12
2022-09-17T03:24:55.915Z,91.26
2022-09-17T03:27:22.684Z,91.34
2022-09-17T03:29:49.398Z,91.02
2022-09-17T03:32:16.196Z,91.51
2022-09-17T03:34:43.041Z,91.38
2022-09-17T03:37:09.757Z,91.39
2022-09-17T03:39:36.484Z,91.57
2022-09-17T03:42:03.276Z,91.66
2022-09-17T03:44:30.004Z,91.81
2022-09-17T03:46:56.898Z,91.59
2022-09-17T03:49:26.364Z,91.70
2022-09-17T03:51:53.076Z,91.82
2022-09-17T03:54:19.935Z,91.58
2022-09-17T03:56:46.639Z,91.84
2022-09-17T03:59:13.452Z,91.90
2022-09-17T04:01:40.347Z,91.88
2022-09-17T04:04:07.976Z,91.93
2022-09-17T04:06:34.939Z,91.80
2022-09-17T04:09:03.897Z,92.00
2022-09-17T04:11:30.757Z,91.96
2022-09-17T04:13:57.569Z,91.96
2022-09-17T04:16:24.462Z,91.85
2022-09-17T04:18:51.292Z,92.29
2022-09-17T04:21:17.981Z,92.14
2022-09-17T04:23:44.714Z,92.28
2022-09-17T04:26:11.487Z,92.28
2022-09-17T04:28:38.427Z,92.00
2022-09-17T04:31:05.253Z,92.20
2022-09-17T04:33:32.108Z,91.95
2022-09-17T04:35:58.877Z,91.86
2022-09-17T04:38:25.645Z,91.88
2022-09-17T04:40:57.433Z,92.19
2022-09-17T04:43:24.221Z,91.94
2022-09-17T04:45:50.924Z,92.06
2022-09-17T04:48:18.174Z,92.17
2022-09-17T04:50:44.922Z,91.76
2022-09-17T04:53:12.667Z,91.69
2022-09-17T04:55:39.617Z,91.89
2022-09-17T04:58:06.441Z,91.76
2022-09-17T05:00:33.221Z,91.70
2022-09-17T05:02:59.973Z,91.58
2022-09-17T05:05:26.938Z,91.51
2022-09-17T05:07:53.810Z,91.52
2022-09-17T05:10:22.050Z,91.47
2022-09-17T05:12:56.277Z,91.13
2022-09-17T05:15:24.314Z,91.18
2022-09-17T05:17:51.038Z,91.24
2022-09-17T05:20:17.943Z,91.60
2022-09-17T05:22:46.299Z,91.11
2022-09-17T05:25:14.805Z,91.22
2022-09-17T05:27:41.499Z,91.52
2022-09-17T05:30:09.582Z,91.58
2022-09-17T05:32:36.974Z,91.44
2022-09-17T05:35:05.713Z,91.50
2022-09-17T05:37:32.891Z,90.98
2022-09-17T05:39:59.823Z,91.39
2022-09-17T05:42:26.533Z,91.41
2022-09-17T05:44:53.209Z,91.52
2022-09-17T05:47:19.915Z,91.16
2022-09-17T05:49:46.555Z,90.96
2022-09-17T05:52:13.249Z,91.19
2022-09-17T05:54:39.927Z,91.14
2022-09-17T05:57:06.706Z,90.98
2022-09-17T05:59:33.651Z,91.09
2022-09-17T06:02:00.385Z,91.03
2022-09-17T06:04:29.588Z,90.72
2022-09-17T06:06:58.293Z,90.78
2022-09-17T06:09:25.149Z,90.74
2022-09-17T06:11:52.803Z,90.61
2022-09-17T06:14:19.532Z,91.18
2022-09-17T06:16:46.311Z,90.65
2022-09-17T06:19:13.205Z,90.72
2022-09-17T06:21:39.867Z,90.63
2022-09-17T06:24:09.487Z,90.76
2022-09-17T06:26:36.232Z,90.55
2022-09-17T06:29:03.013Z,90.49
2022-09-17T06:32:12.959Z,90.31
2022-09-17T06:38:00.524Z,90.31
2022-09-17T06:40:58.975Z,90.15
2022-09-17T06:43:41.342Z,89.71
2022-09-17T06:46:11.638Z,89.46
2022-09-17T06:48:50.092Z,89.45
2022-09-17T06:51:17.021Z,89.56
2022-09-17T06:53:43.785Z,89.53
2022-09-17T06:56:13.143Z,89.34
2022-09-17T06:58:42.128Z,89.09
2022-09-17T07:01:10.240Z,88.71
2022-09-17T07:03:38.283Z,88.58
2022-09-17T07:06:12.281Z,88.50
2022-09-17T07:08:47.667Z,88.41
2022-09-17T07:11:16.145Z,88.26
2022-09-17T07:13:42.956Z,88.31
2022-09-17T07:16:10.452Z,87.86
2022-09-17T07:18:50.259Z,87.91
2022-09-17T07:21:17.286Z,87.25
2022-09-17T07:23:44.870Z,87.35
2022-09-17T07:26:15.694Z,86.98
2022-09-17T07:28:43.797Z,87.09
2022-09-17T07:31:16.098Z,86.66
2022-09-17T07:33:43.505Z,87.01
2022-09-17T07:36:12.376Z,86.75
2022-09-17T07:38:39.786Z,86.75
2022-09-17T07:41:09.598Z,86.38
2022-09-17T07:43:36.675Z,86.12
2022-09-17T07:46:09.882Z,86.27
2022-09-17T07:48:38.458Z,86.16
2022-09-17T07:51:05.353Z,86.26
2022-09-17T07:53:33.194Z,85.98
2022-09-17T07:58:36.103Z,85.63
2022-09-17T08:01:13.834Z,85.59
2022-09-17T08:03:40.721Z,85.62
2022-09-17T08:06:38.882Z,85.35
2022-09-17T08:09:20.544Z,85.44
2022-09-17T08:11:56.108Z,85.20
2022-09-17T08:14:39.525Z,84.78
2022-09-17T08:17:41.938Z,84.82
2022-09-17T08:20:09.402Z,84.47
2022-09-17T08:22:37.415Z,84.21
2022-09-17T08:25:18.739Z,83.87
2022-09-17T08:28:50.438Z,83.62
2022-09-17T08:31:35.573Z,83.80
2022-09-17T08:34:12.398Z,83.05
2022-09-17T08:36:51.973Z,83.07
2022-09-17T08:39:33.482Z,82.52
2022-09-17T08:42:25.736Z,82.47
2022-09-17T08:45:00.555Z,81.88
2022-09-17T08:47:39.138Z,81.46
2022-09-17T08:50:40.424Z,81.18
2022-09-17T08:53:15.537Z,80.45
2022-09-17T08:55:46.844Z,80.31
2022-09-17T08:58:38.197Z,78.89
2022-09-17T09:01:26.919Z,78.39
2022-09-17T09:03:59.820Z,77.53
2022-09-17T09:06:50.074Z,76.88
2022-09-17T09:09:23.676Z,76.55
2022-09-17T09:12:31.685Z,75.74
2022-09-17T09:15:15.135Z,75.04
2022-09-17T09:17:49.662Z,74.89
2022-09-17T09:20:41.162Z,74.55
2022-09-17T09:23:44.038Z,74.82
2022-09-17T09:26:18.318Z,74.75
2022-09-17T09:29:03.740Z,74.91
2022-09-17T09:31:46.451Z,73.32
2022-09-17T09:34:33.690Z,72.56
2022-09-17T09:37:33.741Z,72.13
2022-09-17T09:40:20.302Z,71.79
2022-09-17T09:42:51.151Z,71.38
2022-09-17T09:45:28.506Z,71.66
2022-09-17T09:48:41.081Z,71.59
2022-09-17T09:51:27.935Z,71.82
2022-09-17T09:54:13.401Z,71.47
2022-09-17T09:56:59.284Z,70.49
2022-09-17T09:59:32.035Z,70.23
2022-09-17T10:02:05.085Z,70.29
2022-09-17T10:04:53.357Z,70.17
2022-09-17T10:07:29.791Z,70.03
2022-09-17T10:10:13.179Z,70.30
2022-09-17T10:12:40.338Z,69.94
2022-09-17T10:15:58.274Z,69.80
2022-09-17T10:18:26.230Z,70.78
2022-09-17T10:21:11.788Z,73.34
2022-09-17T10:23:53.303Z,74.91
2022-09-17T10:26:31.537Z,76.19
2022-09-17T10:29:04.368Z,76.80
2022-09-17T10:32:00.731Z,76.76
2022-09-17T10:35:26.160Z,76.63
2022-09-17T10:37:53.870Z,76.34
2022-09-17T10:40:20.725Z,75.90
2022-09-17T10:42:51.729Z,75.58
2022-09-17T10:45:29.785Z,74.90
2022-09-17T10:48:00.086Z,74.47
2022-09-17T10:50:32.019Z,73.72
2022-09-17T10:53:04.918Z,73.53
2022-09-17T10:55:38.043Z,73.22
2022-09-17T10:58:10.276Z,73.12
2022-09-17T11:00:40.067Z,72.68
2022-09-17T11:03:23.019Z,72.33
2022-09-17T11:06:21.185Z,72.22
2022-09-17T11:09:09.839Z,71.85
2022-09-17T11:11:57.506Z,71.97
2022-09-17T11:14:46.790Z,71.56
2022-09-17T11:17:46.959Z,71.21
2022-09-17T11:21:09.451Z,70.99
2022-09-17T11:23:52.714Z,70.67
2022-09-17T11:26:31.815Z,70.59
2022-09-17T11:29:17.401Z,70.30
2022-09-17T11:31:55.320Z,69.67
2022-09-17T11:34:22.257Z,69.48
2022-09-17T11:37:06.195Z,69.31
2022-09-17T11:39:47.697Z,67.93
2022-09-17T11:43:07.515Z,67.59
2022-09-17T11:45:39.732Z,67.04
2022-09-17T11:48:42.461Z,67.45
2022-09-17T11:51:20.164Z,66.84
2022-09-17T11:53:51.783Z,66.54
2022-09-17T11:56:50.330Z,65.75
2022-09-17T11:59:31.069Z,66.18
2022-09-17T12:02:34.976Z,66.89
2022-09-17T12:05:22.402Z,67.28
2022-09-17T12:07:59.846Z,67.89
2022-09-17T12:10:35.137Z,67.49
2022-09-17T12:13:30.035Z,66.54
2022-09-17T12:16:35.224Z,66.03
2022-09-17T12:19:36.986Z,65.91
2022-09-17T12:22:35.022Z,64.71
2022-09-17T12:25:04.454Z,63.37
2022-09-17T12:27:52.947Z,62.28
2022-09-17T12:30:26.727Z,61.76
2022-09-17T12:32:59.310Z,61.43
2022-09-17T12:36:05.512Z,61.11
2022-09-17T12:39:07.281Z,61.46
2022-09-17T12:42:23.840Z,61.19
2022-09-17T12:45:51.010Z,60.78
2022-09-17T12:48:53.468Z,61.10
2022-09-17T12:52:01.772Z,61.39
2022-09-17T12:54:50.281Z,61.26
2022-09-17T12:57:31.283Z,61.30
2022-09-17T13:00:08.191Z,61.50
2022-09-17T13:02:43.066Z,61.15
2022-09-17T13:05:57.607Z,61.05
2022-09-17T13:08:53.001Z,61.30
2022-09-17T13:11:38.401Z,61.37
2022-09-17T13:14:24.489Z,60.80
2022-09-17T13:17:05.390Z,60.47
2022-09-17T13:20:04.694Z,60.46
2022-09-17T13:22:34.172Z,59.70
2022-09-17T13:25:14.589Z,59.04
2022-09-17T13:27:41.542Z,59.13
2022-09-17T13:30:11.101Z,59.28
2022-09-17T13:32:41.345Z,58.73
2022-09-17T13:35:16.999Z,58.89
2022-09-17T13:37:53.275Z,58.99
2022-09-17T13:40:27.832Z,59.33
2022-09-17T13:42:57.123Z,59.48
2022-09-17T13:45:25.874Z,59.50
2022-09-17T13:47:55.176Z,59.81
2022-09-17T13:50:28.075Z,59.78
2022-09-17T13:52:57.393Z,59.53
2022-09-17T13:55:34.745Z,58.65
2022-09-17T13:58:08.707Z,56.15
2022-09-17T14:00:52.964Z,54.15
2022-09-17T14:03:29.192Z,53.76
2022-09-17T14:05:56.552Z,53.70
2022-09-17T14:08:28.738Z,51.55
2022-09-17T14:10:57.428Z,51.78
2022-09-17T14:13:36.378Z,52.34
2022-09-17T14:16:03.393Z,52.11
2022-09-17T14:18:35.411Z,52.61
2022-09-17T14:21:05.856Z,52.52
2022-09-17T14:23:46.833Z,53.07
2022-09-17T14:26:29.000Z,53.19
2022-09-17T14:29:43.781Z,52.50
2022-09-17T14:32:16.609Z,53.05
2022-09-17T14:34:43.482Z,53.00
2022-09-17T14:37:14.453Z,53.72
2022-09-17T14:39:41.436Z,53.63
2022-09-17T14:42:15.736Z,54.11
2022-09-17T14:44:55.003Z,55.13
2022-09-17T14:47:22.758Z,55.39
2022-09-17T14:49:50.900Z,55.47
2022-09-17T14:52:30.529Z,55.59
2022-09-17T14:55:17.626Z,55.98
2022-09-17T14:57:47.281Z,56.51
2022-09-17T15:00:21.731Z,56.50
2022-09-17T15:02:55.730Z,55.66
2022-09-17T15:05:33.338Z,54.04
2022-09-17T15:08:19.204Z,52.30
2022-09-17T15:10:57.043Z,51.01
2022-09-17T15:13:48.352Z,50.74
2022-09-17T15:16:30.724Z,50.33
2022-09-17T15:18:59.798Z,50.89
2022-09-17T15:21:49.409Z,52.88
2022-09-17T15:24:21.671Z,54.44
2022-09-17T15:27:09.495Z,55.49
2022-09-17T15:29:43.140Z,56.69
2022-09-17T15:32:12.701Z,56.92
2022-09-17T15:35:14.316Z,57.17
2022-09-17T15:38:23.668Z,57.21
2022-09-17T15:44:31.788Z,58.21
2022-09-17T15:48:16.564Z,58.68
2022-09-17T15:50:52.462Z,58.94
2022-09-17T15:53:24.689Z,59.91
2022-09-17T15:56:23.534Z,59.57
2022-09-17T15:59:28.941Z,58.62
2022-09-17T16:02:03.888Z,57.79
2022-09-17T16:04:35.818Z,57.11
2022-09-17T16:07:13.627Z,56.52
2022-09-17T16:09:50.827Z,56.79
2022-09-17T16:15:11.408Z,57.42
2022-09-17T16:17:50.119Z,57.82
2022-09-17T16:20:25.462Z,58.23
2022-09-17T16:22:53.577Z,58.44
2022-09-17T16:25:24.650Z,59.43
2022-09-17T16:27:56.143Z,60.16
2022-09-17T16:30:23.865Z,61.27
2022-09-17T16:32:51.222Z,61.79
2022-09-17T16:35:20.244Z,62.88
2022-09-17T16:37:51.625Z,62.95
2022-09-17T16:40:19.974Z,62.69
2022-09-17T16:42:47.345Z,63.28
2022-09-17T16:45:14.675Z,63.48
2022-09-17T16:47:49.752Z,64.10
2022-09-17T16:50:22.431Z,64.38
2022-09-17T16:52:54.690Z,64.73
2022-09-17T16:55:22.090Z,64.31
2022-09-17T16:57:49.208Z,64.74
2022-09-17T17:00:19.616Z,64.77
2022-09-17T17:02:53.075Z,65.22
2022-09-17T17:05:22.906Z,65.22
2022-09-17T17:07:50.185Z,65.56
2022-09-17T17:10:17.581Z,65.82
2022-09-17T17:15:48.395Z,65.94
2022-09-17T17:18:22.776Z,66.30
2022-09-17T17:20:49.630Z,66.94
2022-09-17T17:23:17.010Z,67.31
2022-09-17T17:25:43.824Z,67.46
2022-09-17T17:28:11.240Z,67.40
2022-09-17T17:30:38.704Z,67.87
2022-09-17T17:33:05.730Z,67.82
2022-09-17T17:35:32.791Z,68.29
2022-09-17T17:37:59.642Z,68.16
2022-09-17T17:40:27.065Z,68.01
2022-09-17T17:42:54.667Z,68.35
2022-09-17T17:45:21.715Z,68.29
2022-09-17T17:47:48.841Z,68.55
2022-09-17T17:50:28.684Z,69.04
2022-09-17T17:53:02.799Z,69.58
2022-09-17T17:55:29.725Z,69.54
2022-09-17T17:58:01.194Z,69.48
2022-09-17T18:00:29.027Z,69.60
2022-09-17T18:02:55.777Z,69.75
2022-09-17T18:05:22.575Z,69.93
2022-09-17T18:07:55.198Z,70.08
2022-09-17T18:10:29.713Z,69.91
2022-09-17T18:12:56.602Z,69.94
2022-09-17T18:15:23.531Z,69.73
2022-09-17T18:17:52.695Z,69.82
2022-09-17T18:20:26.277Z,70.15
2022-09-17T18:22:56.080Z,69.92
2022-09-17T18:25:33.700Z,70.17
2022-09-17T18:28:03.739Z,70.13
2022-09-17T18:30:32.351Z,70.69
2022-09-17T18:33:12.078Z,70.71
2022-09-17T18:36:01.213Z,70.53
2022-09-17T18:38:35.904Z,70.89
2022-09-17T18:41:06.020Z,71.12
2022-09-17T18:43:36.293Z,71.17
2022-09-17T18:46:04.222Z,70.83
2022-09-17T18:48:36.168Z,71.34
2022-09-17T18:51:08.871Z,71.40
2022-09-17T18:53:37.051Z,71.63
2022-09-17T18:56:07.378Z,71.80
2022-09-17T18:58:36.191Z,72.24
2022-09-17T19:01:08.246Z,72.34
2022-09-17T19:03:38.232Z,73.01
2022-09-17T19:09:20.685Z,74.21
2022-09-17T19:11:47.407Z,74.42
2022-09-17T19:14:14.166Z,75.07
2022-09-17T19:16:40.945Z,75.51
2022-09-17T19:19:07.659Z,75.82
2022-09-17T19:21:35.387Z,75.59
2022-09-17T19:24:03.586Z,75.93
2022-09-17T19:26:30.518Z,76.17
2022-09-17T19:28:58.703Z,76.57
2022-09-17T19:31:26.129Z,76.27
2022-09-17T19:33:53.339Z,76.68
2022-09-17T19:36:23.317Z,76.61
2022-09-17T19:38:50.191Z,76.86
2022-09-17T19:41:19.027Z,76.80
2022-09-17T19:43:46.320Z,76.86
2022-09-17T19:46:15.845Z,77.18
2022-09-17T19:48:46.629Z,77.15
2022-09-17T19:51:14.295Z,77.06
2022-09-17T19:53:41.548Z,76.85
2022-09-17T19:56:11.386Z,76.83
2022-09-17T19:58:38.178Z,77.09
2022-09-17T20:01:05.233Z,77.04
2022-09-17T20:03:32.044Z,77.23
2022-09-17T20:06:07.339Z,77.32
2022-09-17T20:08:38.073Z,77.28
2022-09-17T20:11:09.614Z,77.02
2022-09-17T20:13:36.834Z,77.30
2022-09-17T20:16:19.002Z,77.19
2022-09-17T20:18:46.021Z,77.25
2022-09-17T20:21:19.166Z,77.76
2022-09-17T20:23:46.126Z,78.19
2022-09-17T20:26:14.580Z,78.41
2022-09-17T20:28:44.533Z,78.54
2022-09-17T20:31:14.061Z,78.78
2022-09-17T20:33:41.615Z,79.00
2022-09-17T20:36:12.471Z,79.46
2022-09-17T20:41:27.851Z,79.73
2022-09-17T20:43:54.772Z,79.80
2022-09-17T20:46:29.014Z,79.64
2022-09-17T20:49:05.639Z,79.65
2022-09-17T20:51:35.220Z,79.99
2022-09-17T20:54:02.492Z,80.14
2022-09-17T20:56:33.399Z,80.05
2022-09-17T20:59:13.529Z,79.91
2022-09-17T21:01:45.100Z,80.21
2022-09-17T21:04:14.986Z,80.29
2022-09-17T21:06:42.937Z,80.20
2022-09-17T21:09:16.045Z,80.46
2022-09-17T21:11:44.041Z,80.56
2022-09-17T21:14:11.985Z,80.75
2022-09-17T21:16:39.451Z,81.08
2022-09-17T21:19:08.014Z,81.11
2022-09-17T21:21:35.182Z,81.02
2022-09-17T21:24:04.082Z,81.14
2022-09-17T21:26:31.233Z,81.02
2022-09-17T21:29:01.633Z,81.13
2022-09-17T21:31:32.635Z,81.15
2022-09-17T21:34:03.768Z,81.39
2022-09-17T21:36:34.978Z,81.84
2022-09-17T21:39:05.972Z,82.02
2022-09-17T21:41:33.232Z,81.90
2022-09-17T21:44:00.368Z,81.98
2022-09-17T21:46:34.150Z,82.36
2022-09-17T21:49:04.584Z,82.60
2022-09-17T21:51:39.312Z,82.68
2022-09-17T21:54:08.854Z,82.61
2022-09-17T21:56:36.077Z,82.93
2022-09-17T21:59:06.000Z,82.68
2022-09-17T22:01:40.249Z,83.09
2022-09-17T22:04:09.655Z,83.19
2022-09-17T22:06:37.257Z,83.22
2022-09-17T22:09:06.567Z,83.15
2022-09-17T22:11:36.098Z,83.15
2022-09-17T22:14:09.234Z,83.36
2022-09-17T22:16:41.682Z,83.19
2022-09-17T22:19:10.076Z,83.56
2022-09-17T22:21:39.819Z,83.46
2022-09-17T22:24:07.316Z,83.47
2022-09-17T22:26:36.694Z,83.86
2022-09-17T22:29:06.059Z,83.84
2022-09-17T22:31:33.860Z,84.02
2022-09-17T22:34:01.110Z,83.95
2022-09-17T22:36:28.694Z,83.96
2022-09-17T22:38:57.466Z,84.24
2022-09-17T22:41:29.134Z,84.17
2022-09-17T22:43:58.193Z,84.47
2022-09-17T22:46:27.430Z,84.44
2022-09-17T22:48:55.187Z,84.31
2022-09-17T22:51:22.665Z,84.46
2022-09-17T22:53:49.678Z,84.70
2022-09-17T22:56:18.771Z,84.78
2022-09-17T22:58:46.357Z,84.79
2022-09-17T23:01:21.998Z,84.67
2022-09-17T23:03:51.419Z,84.70
2022-09-17T23:06:21.559Z,84.84
2022-09-17T23:08:48.767Z,85.10
2022-09-17T23:11:20.247Z,84.98
2022-09-17T23:13:48.040Z,85.54
2022-09-17T23:16:15.362Z,85.30
2022-09-17T23:18:42.490Z,85.38
2022-09-17T23:21:14.898Z,85.86
2022-09-17T23:23:43.373Z,85.98
2022-09-17T23:26:13.333Z,85.96
2022-09-17T23:28:40.690Z,85.83
2022-09-17T23:31:11.774Z,86.15
2022-09-17T23:33:39.043Z,86.14
2022-09-17T23:36:13.061Z,85.86
2022-09-17T23:38:43.963Z,86.13
2022-09-17T23:41:12.663Z,86.24
2022-09-17T23:43:39.495Z,85.87
2022-09-17T23:46:06.391Z,86.07
2022-09-17T23:48:33.622Z,86.01
2022-09-17T23:51:00.860Z,85.95
2022-09-17T23:53:30.179Z,86.05
2022-09-17T23:55:57.073Z,86.09
2022-09-17T23:58:23.963Z,86.09
